sensor_id;sensor_type;location;lat;lon;timestamp;temperature;humidity
29007;DHT22;16104;48.642;9.008;2022-08-05T01:04:09;26.50;43.30
29007;DHT22;16104;48.642;9.008;2022-08-05T01:09:04;26.40;43.30
29007;DHT22;16104;48.642;9.008;2022-08-05T01:14:09;26.30;43.80
29007;DHT22;16104;48.642;9.008;2022-08-05T02:00:30;26.50;42.00
29007;DHT22;16104;48.642;9.008;2022-08-05T02:05:30;26.60;42.30
29007;DHT22;16104;48.642;9.008;2022-08-05T02:10:31;26.70;42.40
29007;DHT22;16104;48.642;9.008;2022-08-05T03:01:16;26.60;42.40
29007;DHT22;16104;48.642;9.008;2022-08-05T03:06:13;26.60;42.70
29007;DHT22;16104;48.642;9.008;2022-08-05T03:11:21;26.50;42.60
29007;DHT22;16104;48.642;9.008;2022-08-05T03:16:18;26.50;43.10
29007;DHT22;16104;48.642;9.008;2022-08-05T03:21:14;26.40;42.60
29007;DHT22;16104;48.642;9.008;2022-08-05T03:26:10;26.30;42.80
29007;DHT22;16104;48.642;9.008;2022-08-05T03:31:06;26.30;43.10
29007;DHT22;16104;48.642;9.008;2022-08-05T03:36:02;26.20;43.20
29007;DHT22;16104;48.642;9.008;2022-08-05T03:40:58;26.10;43.20
29007;DHT22;16104;48.642;9.008;2022-08-05T03:45:54;26.00;43.30
29007;DHT22;16104;48.642;9.008;2022-08-05T03:56:12;25.90;44.30
29007;DHT22;16104;48.642;9.008;2022-08-05T04:01:10;25.80;44.20
29007;DHT22;16104;48.642;9.008;2022-08-05T04:06:06;25.80;44.10
29007;DHT22;16104;48.642;9.008;2022-08-05T04:11:03;25.70;44.60
29007;DHT22;16104;48.642;9.008;2022-08-05T04:16:01;25.70;44.80
29007;DHT22;16104;48.642;9.008;2022-08-05T04:20:57;25.60;43.70
29007;DHT22;16104;48.642;9.008;2022-08-05T04:25:53;25.60;45.10
29007;DHT22;16104;48.642;9.008;2022-08-05T04:30:48;25.50;44.80
29007;DHT22;16104;48.642;9.008;2022-08-05T04:35:44;25.40;45.10
29007;DHT22;16104;48.642;9.008;2022-08-05T04:40:40;25.40;45.30
29007;DHT22;16104;48.642;9.008;2022-08-05T04:45:36;25.30;45.90
29007;DHT22;16104;48.642;9.008;2022-08-05T04:50:38;25.20;46.00
29007;DHT22;16104;48.642;9.008;2022-08-05T04:55:38;25.10;46.80
29007;DHT22;16104;48.642;9.008;2022-08-05T05:00:35;25.00;46.90
29007;DHT22;16104;48.642;9.008;2022-08-05T05:05:31;24.80;46.50
29007;DHT22;16104;48.642;9.008;2022-08-05T05:10:29;24.70;46.60
29007;DHT22;16104;48.642;9.008;2022-08-05T05:15:25;24.60;47.00
29007;DHT22;16104;48.642;9.008;2022-08-05T05:20:20;24.50;47.20
29007;DHT22;16104;48.642;9.008;2022-08-05T05:25:16;24.50;47.10
29007;DHT22;16104;48.642;9.008;2022-08-05T05:30:13;24.50;47.30
29007;DHT22;16104;48.642;9.008;2022-08-05T05:35:09;24.50;47.10
29007;DHT22;16104;48.642;9.008;2022-08-05T05:40:05;24.50;47.30
29007;DHT22;16104;48.642;9.008;2022-08-05T05:45:01;24.60;47.60
29007;DHT22;16104;48.642;9.008;2022-08-05T05:49:56;24.60;47.70
29007;DHT22;16104;48.642;9.008;2022-08-05T05:54:52;24.70;48.40
29007;DHT22;16104;48.642;9.008;2022-08-05T05:59:47;24.70;48.70
29007;DHT22;16104;48.642;9.008;2022-08-05T06:04:43;24.90;49.20
29007;DHT22;16104;48.642;9.008;2022-08-05T06:09:38;25.00;49.60
29007;DHT22;16104;48.642;9.008;2022-08-05T06:14:34;25.20;49.90
29007;DHT22;16104;48.642;9.008;2022-08-05T06:19:30;25.30;50.00
29007;DHT22;16104;48.642;9.008;2022-08-05T06:24:25;25.50;50.20
29007;DHT22;16104;48.642;9.008;2022-08-05T06:29:21;25.60;50.10
29007;DHT22;16104;48.642;9.008;2022-08-05T06:34:17;25.70;49.90
29007;DHT22;16104;48.642;9.008;2022-08-05T06:39:13;25.90;50.00
29007;DHT22;16104;48.642;9.008;2022-08-05T06:44:08;26.00;49.70
29007;DHT22;16104;48.642;9.008;2022-08-05T06:49:03;26.10;49.30
29007;DHT22;16104;48.642;9.008;2022-08-05T06:54:00;26.30;49.30
29007;DHT22;16104;48.642;9.008;2022-08-05T06:58:56;26.50;49.00
29007;DHT22;16104;48.642;9.008;2022-08-05T07:03:51;26.60;48.40
29007;DHT22;16104;48.642;9.008;2022-08-05T07:08:47;26.80;48.20
29007;DHT22;16104;48.642;9.008;2022-08-05T07:13:43;26.90;47.90
29007;DHT22;16104;48.642;9.008;2022-08-05T07:18:57;27.00;47.40
29007;DHT22;16104;48.642;9.008;2022-08-05T07:23:53;27.20;46.20
29007;DHT22;16104;48.642;9.008;2022-08-05T07:28:49;27.30;45.70
29007;DHT22;16104;48.642;9.008;2022-08-05T07:33:47;27.50;44.50
29007;DHT22;16104;48.642;9.008;2022-08-05T07:38:43;27.60;43.50
29007;DHT22;16104;48.642;9.008;2022-08-05T07:43:38;27.80;43.70
29007;DHT22;16104;48.642;9.008;2022-08-05T07:48:34;27.90;43.40
29007;DHT22;16104;48.642;9.008;2022-08-05T07:53:29;28.10;43.00
29007;DHT22;16104;48.642;9.008;2022-08-05T07:58:25;28.20;42.40
29007;DHT22;16104;48.642;9.008;2022-08-05T08:03:21;28.40;42.30
29007;DHT22;16104;48.642;9.008;2022-08-05T08:08:17;28.50;41.60
29007;DHT22;16104;48.642;9.008;2022-08-05T08:13:13;28.70;41.00
29007;DHT22;16104;48.642;9.008;2022-08-05T08:18:08;28.80;40.50
29007;DHT22;16104;48.642;9.008;2022-08-05T08:23:03;28.90;40.80
29007;DHT22;16104;48.642;9.008;2022-08-05T08:27:59;29.00;40.80
29007;DHT22;16104;48.642;9.008;2022-08-05T08:32:55;29.10;40.60
29007;DHT22;16104;48.642;9.008;2022-08-05T08:37:51;29.30;40.70
29007;DHT22;16104;48.642;9.008;2022-08-05T08:42:49;29.40;40.20
29007;DHT22;16104;48.642;9.008;2022-08-05T08:47:49;29.50;39.70
29007;DHT22;16104;48.642;9.008;2022-08-05T08:52:45;29.70;39.70
29007;DHT22;16104;48.642;9.008;2022-08-05T08:57:42;29.90;40.10
29007;DHT22;16104;48.642;9.008;2022-08-05T09:02:38;30.00;39.10
29007;DHT22;16104;48.642;9.008;2022-08-05T09:07:34;30.10;38.90
29007;DHT22;16104;48.642;9.008;2022-08-05T09:12:29;30.20;38.60
29007;DHT22;16104;48.642;9.008;2022-08-05T09:17:25;30.20;37.90
29007;DHT22;16104;48.642;9.008;2022-08-05T09:22:20;30.30;37.80
29007;DHT22;16104;48.642;9.008;2022-08-05T09:27:34;30.40;37.90
29007;DHT22;16104;48.642;9.008;2022-08-05T09:32:36;30.60;37.10
29007;DHT22;16104;48.642;9.008;2022-08-05T09:37:32;30.80;37.40
29007;DHT22;16104;48.642;9.008;2022-08-05T09:42:38;31.00;37.30
29007;DHT22;16104;48.642;9.008;2022-08-05T09:47:39;31.30;36.90
29007;DHT22;16104;48.642;9.008;2022-08-05T09:52:35;31.50;36.20
29007;DHT22;16104;48.642;9.008;2022-08-05T09:57:44;31.70;36.60
29007;DHT22;16104;48.642;9.008;2022-08-05T10:02:47;31.90;36.80
29007;DHT22;16104;48.642;9.008;2022-08-05T10:12:45;32.50;35.60
29007;DHT22;16104;48.642;9.008;2022-08-05T10:17:41;32.80;35.60
29007;DHT22;16104;48.642;9.008;2022-08-05T10:22:38;33.20;35.70
29007;DHT22;16104;48.642;9.008;2022-08-05T10:27:35;33.50;35.00
29007;DHT22;16104;48.642;9.008;2022-08-05T10:32:31;33.80;35.80
29007;DHT22;16104;48.642;9.008;2022-08-05T10:37:30;34.00;34.30
29007;DHT22;16104;48.642;9.008;2022-08-05T10:42:28;34.20;32.90
29007;DHT22;16104;48.642;9.008;2022-08-05T10:47:30;34.40;33.10
29007;DHT22;16104;48.642;9.008;2022-08-05T10:52:44;34.60;31.30
29007;DHT22;16104;48.642;9.008;2022-08-05T10:57:46;34.80;31.50
29007;DHT22;16104;48.642;9.008;2022-08-05T11:07:58;35.20;30.70
29007;DHT22;16104;48.642;9.008;2022-08-05T11:12:54;35.40;30.60
29007;DHT22;16104;48.642;9.008;2022-08-05T11:17:52;35.50;30.50
29007;DHT22;16104;48.642;9.008;2022-08-05T11:22:49;35.70;30.40
29007;DHT22;16104;48.642;9.008;2022-08-05T11:27:46;35.90;30.40
29007;DHT22;16104;48.642;9.008;2022-08-05T11:32:41;36.10;30.20
29007;DHT22;16104;48.642;9.008;2022-08-05T11:42:47;36.50;29.40
29007;DHT22;16104;48.642;9.008;2022-08-05T11:47:44;36.70;29.10
29007;DHT22;16104;48.642;9.008;2022-08-05T11:52:40;37.00;28.30
29007;DHT22;16104;48.642;9.008;2022-08-05T11:57:35;37.20;28.70
29007;DHT22;16104;48.642;9.008;2022-08-05T12:02:31;37.40;28.30
29007;DHT22;16104;48.642;9.008;2022-08-05T12:07:33;37.60;28.20
29007;DHT22;16104;48.642;9.008;2022-08-05T12:12:29;37.80;27.80
29007;DHT22;16104;48.642;9.008;2022-08-05T12:17:24;38.00;27.40
29007;DHT22;16104;48.642;9.008;2022-08-05T12:22:27;38.10;27.50
29007;DHT22;16104;48.642;9.008;2022-08-05T12:27:28;38.20;27.70
29007;DHT22;16104;48.642;9.008;2022-08-05T12:32:25;38.30;27.90
29007;DHT22;16104;48.642;9.008;2022-08-05T12:37:22;38.70;28.00
29007;DHT22;16104;48.642;9.008;2022-08-05T12:42:19;39.00;27.40
29007;DHT22;16104;48.642;9.008;2022-08-05T12:47:28;39.30;26.20
29007;DHT22;16104;48.642;9.008;2022-08-05T12:52:24;39.40;26.80
29007;DHT22;16104;48.642;9.008;2022-08-05T12:57:20;39.60;26.40
29007;DHT22;16104;48.642;9.008;2022-08-05T13:02:22;39.80;25.80
29007;DHT22;16104;48.642;9.008;2022-08-05T13:07:21;39.70;24.80
29007;DHT22;16104;48.642;9.008;2022-08-05T13:12:18;39.70;25.00
29007;DHT22;16104;48.642;9.008;2022-08-05T13:17:18;39.70;25.10
29007;DHT22;16104;48.642;9.008;2022-08-05T13:22:14;39.60;26.50
29007;DHT22;16104;48.642;9.008;2022-08-05T13:27:10;39.60;25.10
29007;DHT22;16104;48.642;9.008;2022-08-05T13:32:05;39.30;25.00
29007;DHT22;16104;48.642;9.008;2022-08-05T13:37:01;39.10;24.80
29007;DHT22;16104;48.642;9.008;2022-08-05T13:41:56;38.90;25.30
29007;DHT22;16104;48.642;9.008;2022-08-05T13:46:52;38.70;25.50
29007;DHT22;16104;48.642;9.008;2022-08-05T13:51:47;38.70;25.80
29007;DHT22;16104;48.642;9.008;2022-08-05T13:56:44;38.60;25.70
29007;DHT22;16104;48.642;9.008;2022-08-05T14:01:39;38.70;25.90
29007;DHT22;16104;48.642;9.008;2022-08-05T14:06:35;38.70;25.40
29007;DHT22;16104;48.642;9.008;2022-08-05T14:11:30;38.60;25.50
29007;DHT22;16104;48.642;9.008;2022-08-05T14:16:26;38.40;25.70
29007;DHT22;16104;48.642;9.008;2022-08-05T14:21:22;38.20;25.40
29007;DHT22;16104;48.642;9.008;2022-08-05T14:26:17;37.90;25.50
29007;DHT22;16104;48.642;9.008;2022-08-05T14:31:13;37.50;25.50
29007;DHT22;16104;48.642;9.008;2022-08-05T14:36:08;37.10;25.70
29007;DHT22;16104;48.642;9.008;2022-08-05T14:41:04;36.70;26.10
29007;DHT22;16104;48.642;9.008;2022-08-05T14:46:00;36.30;26.80
29007;DHT22;16104;48.642;9.008;2022-08-05T14:50:56;36.00;26.90
29007;DHT22;16104;48.642;9.008;2022-08-05T14:55:52;35.50;28.60
29007;DHT22;16104;48.642;9.008;2022-08-05T15:00:47;35.10;31.60
29007;DHT22;16104;48.642;9.008;2022-08-05T15:05:43;34.50;31.50
29007;DHT22;16104;48.642;9.008;2022-08-05T15:10:38;33.80;34.60
29007;DHT22;16104;48.642;9.008;2022-08-05T15:15:35;33.30;36.30
29007;DHT22;16104;48.642;9.008;2022-08-05T15:20:31;32.90;37.70
29007;DHT22;16104;48.642;9.008;2022-08-05T15:25:27;32.80;38.70
29007;DHT22;16104;48.642;9.008;2022-08-05T15:30:23;32.60;39.00
29007;DHT22;16104;48.642;9.008;2022-08-05T15:35:18;32.50;39.40
29007;DHT22;16104;48.642;9.008;2022-08-05T15:40:13;32.50;40.20
29007;DHT22;16104;48.642;9.008;2022-08-05T15:45:10;32.60;40.50
29007;DHT22;16104;48.642;9.008;2022-08-05T15:50:07;32.60;40.90
29007;DHT22;16104;48.642;9.008;2022-08-05T15:55:04;32.60;40.80
29007;DHT22;16104;48.642;9.008;2022-08-05T16:00:01;32.60;40.90
29007;DHT22;16104;48.642;9.008;2022-08-05T16:04:56;32.60;40.20
29007;DHT22;16104;48.642;9.008;2022-08-05T16:09:52;32.50;39.00
29007;DHT22;16104;48.642;9.008;2022-08-05T16:14:48;32.50;39.00
29007;DHT22;16104;48.642;9.008;2022-08-05T16:19:43;32.30;38.80
29007;DHT22;16104;48.642;9.008;2022-08-05T16:24:39;32.20;38.90
29007;DHT22;16104;48.642;9.008;2022-08-05T16:29:35;32.00;38.80
29007;DHT22;16104;48.642;9.008;2022-08-05T16:34:31;31.90;38.70
29007;DHT22;16104;48.642;9.008;2022-08-05T16:39:26;31.60;39.00
29007;DHT22;16104;48.642;9.008;2022-08-05T16:44:22;31.40;39.70
29007;DHT22;16104;48.642;9.008;2022-08-05T16:49:18;31.20;39.60
29007;DHT22;16104;48.642;9.008;2022-08-05T16:54:14;31.10;39.50
29007;DHT22;16104;48.642;9.008;2022-08-05T16:59:10;30.80;37.90
29007;DHT22;16104;48.642;9.008;2022-08-05T17:04:05;30.70;39.60
29007;DHT22;16104;48.642;9.008;2022-08-05T17:09:01;30.60;39.80
29007;DHT22;16104;48.642;9.008;2022-08-05T17:13:56;30.40;39.80
29007;DHT22;16104;48.642;9.008;2022-08-05T17:18:52;30.30;40.20
29007;DHT22;16104;48.642;9.008;2022-08-05T17:23:48;30.20;40.50
29007;DHT22;16104;48.642;9.008;2022-08-05T17:28:43;30.10;40.50
29007;DHT22;16104;48.642;9.008;2022-08-05T17:33:39;29.90;40.40
29007;DHT22;16104;48.642;9.008;2022-08-05T17:38:35;29.80;40.70
29007;DHT22;16104;48.642;9.008;2022-08-05T17:43:30;29.60;40.90
29007;DHT22;16104;48.642;9.008;2022-08-05T17:48:26;29.40;41.20
29007;DHT22;16104;48.642;9.008;2022-08-05T17:53:22;29.30;41.40
29007;DHT22;16104;48.642;9.008;2022-08-05T17:58:17;29.10;41.50
29007;DHT22;16104;48.642;9.008;2022-08-05T18:03:14;28.90;41.60
29007;DHT22;16104;48.642;9.008;2022-08-05T18:08:10;28.80;41.90
29007;DHT22;16104;48.642;9.008;2022-08-05T18:13:05;28.60;42.20
29007;DHT22;16104;48.642;9.008;2022-08-05T18:18:01;28.50;43.00
29007;DHT22;16104;48.642;9.008;2022-08-05T18:22:57;28.40;43.50
29007;DHT22;16104;48.642;9.008;2022-08-05T18:27:52;28.30;44.20
29007;DHT22;16104;48.642;9.008;2022-08-05T18:32:48;28.20;44.70
29007;DHT22;16104;48.642;9.008;2022-08-05T18:37:43;28.00;45.00
29007;DHT22;16104;48.642;9.008;2022-08-05T18:42:39;27.90;45.30
29007;DHT22;16104;48.642;9.008;2022-08-05T18:47:36;27.70;45.60
29007;DHT22;16104;48.642;9.008;2022-08-05T18:52:32;27.60;46.00
29007;DHT22;16104;48.642;9.008;2022-08-05T18:57:29;27.40;46.20
29007;DHT22;16104;48.642;9.008;2022-08-05T19:02:25;27.30;46.40
29007;DHT22;16104;48.642;9.008;2022-08-05T19:07:20;27.20;46.80
29007;DHT22;16104;48.642;9.008;2022-08-05T19:12:16;27.00;47.10
29007;DHT22;16104;48.642;9.008;2022-08-05T19:17:12;26.90;47.30
29007;DHT22;16104;48.642;9.008;2022-08-05T19:22:09;26.70;47.60
29007;DHT22;16104;48.642;9.008;2022-08-05T19:27:05;26.50;47.90
29007;DHT22;16104;48.642;9.008;2022-08-05T19:32:06;26.40;48.10
29007;DHT22;16104;48.642;9.008;2022-08-05T19:37:02;26.20;48.40
29007;DHT22;16104;48.642;9.008;2022-08-05T19:41:57;26.10;48.10
29007;DHT22;16104;48.642;9.008;2022-08-05T19:46:53;26.00;47.80
29007;DHT22;16104;48.642;9.008;2022-08-05T19:51:49;25.80;48.00
29007;DHT22;16104;48.642;9.008;2022-08-05T19:56:45;25.70;48.00
29007;DHT22;16104;48.642;9.008;2022-08-05T20:01:42;25.60;47.80
29007;DHT22;16104;48.642;9.008;2022-08-05T20:06:37;25.50;47.70
29007;DHT22;16104;48.642;9.008;2022-08-05T20:11:33;25.40;47.60
29007;DHT22;16104;48.642;9.008;2022-08-05T20:16:28;25.20;47.70
29007;DHT22;16104;48.642;9.008;2022-08-05T20:21:24;25.10;47.70
29007;DHT22;16104;48.642;9.008;2022-08-05T20:26:21;25.00;47.80
29007;DHT22;16104;48.642;9.008;2022-08-05T20:31:20;24.90;48.10
29007;DHT22;16104;48.642;9.008;2022-08-05T20:36:16;24.70;48.40
29007;DHT22;16104;48.642;9.008;2022-08-05T20:41:12;24.60;48.60
29007;DHT22;16104;48.642;9.008;2022-08-05T20:46:07;24.50;49.10
29007;DHT22;16104;48.642;9.008;2022-08-05T20:51:04;24.40;49.40
29007;DHT22;16104;48.642;9.008;2022-08-05T20:56:00;24.20;49.60
29007;DHT22;16104;48.642;9.008;2022-08-05T21:00:55;24.10;50.00
29007;DHT22;16104;48.642;9.008;2022-08-05T21:05:51;24.00;50.30
29007;DHT22;16104;48.642;9.008;2022-08-05T21:10:47;23.90;50.60
29007;DHT22;16104;48.642;9.008;2022-08-05T21:15:43;23.80;51.00
29007;DHT22;16104;48.642;9.008;2022-08-05T21:20:38;23.70;51.20
29007;DHT22;16104;48.642;9.008;2022-08-05T21:25:34;23.60;51.30
29007;DHT22;16104;48.642;9.008;2022-08-05T21:30:29;23.60;51.60
29007;DHT22;16104;48.642;9.008;2022-08-05T21:35:25;23.50;51.80
29007;DHT22;16104;48.642;9.008;2022-08-05T21:40:22;23.40;51.90
29007;DHT22;16104;48.642;9.008;2022-08-05T21:45:17;23.40;52.20
29007;DHT22;16104;48.642;9.008;2022-08-05T21:50:14;23.40;52.20
29007;DHT22;16104;48.642;9.008;2022-08-05T21:55:10;23.30;52.60
29007;DHT22;16104;48.642;9.008;2022-08-05T22:00:07;23.20;52.40
29007;DHT22;16104;48.642;9.008;2022-08-05T22:05:05;23.20;52.70
29007;DHT22;16104;48.642;9.008;2022-08-05T22:10:03;23.20;52.60
29007;DHT22;16104;48.642;9.008;2022-08-05T22:14:58;23.20;52.70
29007;DHT22;16104;48.642;9.008;2022-08-05T22:19:54;23.10;52.70
29007;DHT22;16104;48.642;9.008;2022-08-05T22:24:49;23.10;52.70
29007;DHT22;16104;48.642;9.008;2022-08-05T22:30:05;23.10;52.70
29007;DHT22;16104;48.642;9.008;2022-08-05T22:35:00;23.10;52.60
29007;DHT22;16104;48.642;9.008;2022-08-05T22:39:56;23.00;52.50
29007;DHT22;16104;48.642;9.008;2022-08-05T22:44:51;23.00;52.00
29007;DHT22;16104;48.642;9.008;2022-08-05T22:49:47;23.00;51.70
29007;DHT22;16104;48.642;9.008;2022-08-05T22:54:43;23.00;51.40
29007;DHT22;16104;48.642;9.008;2022-08-05T22:59:39;22.90;51.00
29007;DHT22;16104;48.642;9.008;2022-08-05T23:04:35;22.90;50.40
29007;DHT22;16104;48.642;9.008;2022-08-05T23:09:30;22.90;50.00
29007;DHT22;16104;48.642;9.008;2022-08-05T23:14:26;22.80;49.10
29007;DHT22;16104;48.642;9.008;2022-08-05T23:19:21;22.80;48.70
29007;DHT22;16104;48.642;9.008;2022-08-05T23:24:17;22.80;48.70
29007;DHT22;16104;48.642;9.008;2022-08-05T23:29:12;22.70;48.40
29007;DHT22;16104;48.642;9.008;2022-08-05T23:34:08;22.70;48.40
29007;DHT22;16104;48.642;9.008;2022-08-05T23:39:03;22.70;48.10
29007;DHT22;16104;48.642;9.008;2022-08-05T23:43:59;22.60;48.00
29007;DHT22;16104;48.642;9.008;2022-08-05T23:48:54;22.60;47.70
29007;DHT22;16104;48.642;9.008;2022-08-05T23:53:50;22.60;47.50
29007;DHT22;16104;48.642;9.008;2022-08-05T23:58:45;22.50;47.40
